TAM3911 SBRJ-SBSP
Flight info
| Callsign | TAM3911 |
|---|---|
| Flight time | 0h 36m |
| Altitude | 34000 |
| Route | NAXOP UZ45 IBDAL |
| Aircraft | A319/M-SDE3FGHIRWY/LB1 |
Departure
| Time | 2026-05-07 11:33 |
|---|---|
| Airport | Santos Dumont Airport (SBRJ) |
Arrival
| Time | 2026-05-07 12:10 |
|---|---|
| Airport | Congonhas–Deputado Freitas Nobre Airport (SBSP) |
| Time | Latitude | Longitude | Altitude | Speed | Heading |
|---|---|---|---|---|---|
| 2026-05-07 10:57 | -22.91351 | -43.16576 | 22 ft | 0 kts | 268° |
| 2026-05-07 11:22 | -22.91351 | -43.16564 | 22 ft | 4 kts | 267° |
| 2026-05-07 11:23 | -22.91348 | -43.16536 | 22 ft | 4 kts | 256° |
| 2026-05-07 11:23 | -22.91338 | -43.16511 | 22 ft | 4 kts | 216° |
| 2026-05-07 11:23 | -22.91327 | -43.16506 | 22 ft | 0 kts | 177° |
| 2026-05-07 11:26 | -22.91340 | -43.16505 | 25 ft | 6 kts | 177° |
| 2026-05-07 11:26 | -22.91409 | -43.16500 | 22 ft | 11 kts | 171° |
| 2026-05-07 11:27 | -22.91466 | -43.16434 | 22 ft | 14 kts | 135° |
| 2026-05-07 11:27 | -22.91546 | -43.16356 | 21 ft | 17 kts | 137° |
| 2026-05-07 11:27 | -22.91620 | -43.16276 | 20 ft | 11 kts | 133° |
| 2026-05-07 11:27 | -22.91577 | -43.16250 | 20 ft | 11 kts | 347° |
| 2026-05-07 11:28 | -22.91549 | -43.16252 | 20 ft | 0 kts | 0° |
| 2026-05-07 11:31 | -22.91545 | -43.16252 | 20 ft | 4 kts | 0° |
| 2026-05-07 11:32 | -22.91333 | -43.16295 | 20 ft | 14 kts | 279° |
| 2026-05-07 11:32 | -22.91414 | -43.16333 | 19 ft | 16 kts | 174° |
| 2026-05-07 11:32 | -22.91518 | -43.16315 | 20 ft | 11 kts | 134° |
| 2026-05-07 11:33 | -22.91508 | -43.16253 | 22 ft | 9 kts | 16° |
| 2026-05-07 11:33 | -22.91199 | -43.16273 | 21 ft | 89 kts | 356° |
| 2026-05-07 11:33 | -22.90321 | -43.16330 | 113 ft | 151 kts | 356° |
| 2026-05-07 11:33 | -22.89256 | -43.16370 | 705 ft | 162 kts | 5° |
| 2026-05-07 11:34 | -22.88200 | -43.15803 | 1016 ft | 186 kts | 46° |
| 2026-05-07 11:34 | -22.87699 | -43.14437 | 1283 ft | 212 kts | 87° |
| 2026-05-07 11:34 | -22.88092 | -43.12795 | 1643 ft | 243 kts | 121° |
| 2026-05-07 11:34 | -22.89423 | -43.11570 | 2273 ft | 264 kts | 159° |
| 2026-05-07 11:35 | -22.91272 | -43.11393 | 3184 ft | 273 kts | 187° |
| 2026-05-07 11:35 | -22.93157 | -43.11726 | 4217 ft | 276 kts | 192° |
| 2026-05-07 11:35 | -22.95045 | -43.12182 | 5210 ft | 280 kts | 193° |
| 2026-05-07 11:35 | -22.96959 | -43.12680 | 6120 ft | 285 kts | 193° |
| 2026-05-07 11:36 | -22.98908 | -43.13183 | 7009 ft | 291 kts | 193° |
| 2026-05-07 11:36 | -23.00894 | -43.13678 | 7941 ft | 295 kts | 193° |
| 2026-05-07 11:36 | -23.02917 | -43.14166 | 8841 ft | 300 kts | 192° |
| 2026-05-07 11:36 | -23.04965 | -43.14650 | 9743 ft | 303 kts | 193° |
| 2026-05-07 11:37 | -23.06955 | -43.15451 | 10543 ft | 308 kts | 210° |
| 2026-05-07 11:37 | -23.08723 | -43.16810 | 11119 ft | 321 kts | 219° |
| 2026-05-07 11:37 | -23.10525 | -43.18369 | 11483 ft | 339 kts | 219° |
| 2026-05-07 11:37 | -23.12377 | -43.19992 | 12133 ft | 345 kts | 219° |
| 2026-05-07 11:38 | -23.14254 | -43.21640 | 12846 ft | 349 kts | 219° |
| 2026-05-07 11:38 | -23.16159 | -43.23309 | 13552 ft | 353 kts | 219° |
| 2026-05-07 11:38 | -23.18078 | -43.24986 | 14261 ft | 355 kts | 218° |
| 2026-05-07 11:38 | -23.20005 | -43.26670 | 14942 ft | 356 kts | 218° |
| 2026-05-07 11:39 | -23.21945 | -43.28362 | 15607 ft | 359 kts | 218° |
| 2026-05-07 11:39 | -23.23896 | -43.30061 | 16259 ft | 361 kts | 218° |
| 2026-05-07 11:39 | -23.25834 | -43.31750 | 16911 ft | 363 kts | 218° |
| 2026-05-07 11:39 | -23.27835 | -43.33492 | 17588 ft | 365 kts | 218° |
| 2026-05-07 11:40 | -23.29796 | -43.35201 | 18211 ft | 367 kts | 218° |
| 2026-05-07 11:40 | -23.31715 | -43.37048 | 18802 ft | 371 kts | 226° |
| 2026-05-07 11:40 | -23.33260 | -43.39300 | 19416 ft | 374 kts | 237° |
| 2026-05-07 11:40 | -23.34346 | -43.41880 | 20044 ft | 377 kts | 250° |
| 2026-05-07 11:41 | -23.35031 | -43.44646 | 20638 ft | 380 kts | 254° |
| 2026-05-07 11:41 | -23.35684 | -43.47441 | 21210 ft | 382 kts | 254° |
| 2026-05-07 11:41 | -23.36339 | -43.50253 | 21787 ft | 384 kts | 253° |
| 2026-05-07 11:41 | -23.36998 | -43.53078 | 22350 ft | 387 kts | 253° |
| 2026-05-07 11:42 | -23.37663 | -43.55925 | 22902 ft | 389 kts | 253° |
| 2026-05-07 11:42 | -23.38333 | -43.58790 | 23468 ft | 392 kts | 253° |
| 2026-05-07 11:42 | -23.39008 | -43.61670 | 23977 ft | 394 kts | 253° |
| 2026-05-07 11:42 | -23.39693 | -43.64589 | 24197 ft | 404 kts | 253° |
| 2026-05-07 11:43 | -23.40399 | -43.67596 | 24305 ft | 416 kts | 253° |
| 2026-05-07 11:43 | -23.41121 | -43.70680 | 24420 ft | 426 kts | 253° |
| 2026-05-07 11:43 | -23.41857 | -43.73840 | 24534 ft | 435 kts | 253° |
| 2026-05-07 11:43 | -23.42605 | -43.77061 | 24658 ft | 443 kts | 253° |
| 2026-05-07 11:44 | -23.43363 | -43.80337 | 24767 ft | 450 kts | 253° |
| 2026-05-07 11:44 | -23.44133 | -43.83662 | 24880 ft | 456 kts | 253° |
| 2026-05-07 11:44 | -23.44913 | -43.87031 | 24991 ft | 462 kts | 253° |
| 2026-05-07 11:44 | -23.45700 | -43.90437 | 25106 ft | 467 kts | 253° |
| 2026-05-07 11:45 | -23.46492 | -43.93878 | 25221 ft | 471 kts | 253° |
| 2026-05-07 11:45 | -23.47293 | -43.97352 | 25369 ft | 474 kts | 253° |
| 2026-05-07 11:45 | -23.48096 | -44.00835 | 25624 ft | 474 kts | 253° |
| 2026-05-07 11:45 | -23.48889 | -44.04268 | 25934 ft | 473 kts | 253° |
| 2026-05-07 11:46 | -23.49691 | -44.07739 | 26287 ft | 472 kts | 253° |
| 2026-05-07 11:46 | -23.50488 | -44.11197 | 26656 ft | 470 kts | 253° |
| 2026-05-07 11:46 | -23.51280 | -44.14641 | 27019 ft | 468 kts | 252° |
| 2026-05-07 11:46 | -23.52068 | -44.18080 | 27392 ft | 467 kts | 252° |
| 2026-05-07 11:47 | -23.52853 | -44.21504 | 27787 ft | 465 kts | 252° |
| 2026-05-07 11:47 | -23.53636 | -44.24914 | 28179 ft | 463 kts | 252° |
| 2026-05-07 11:47 | -23.54415 | -44.28306 | 28617 ft | 460 kts | 252° |
| 2026-05-07 11:47 | -23.55189 | -44.31683 | 29038 ft | 459 kts | 252° |
| 2026-05-07 11:48 | -23.55959 | -44.35050 | 29475 ft | 457 kts | 252° |
| 2026-05-07 11:48 | -23.56723 | -44.38400 | 29918 ft | 454 kts | 251° |
| 2026-05-07 11:48 | -23.57484 | -44.41740 | 30072 ft | 453 kts | 251° |
| 2026-05-07 11:49 | -23.59000 | -44.48390 | 30084 ft | 452 kts | 251° |
| 2026-05-07 11:49 | -23.60512 | -44.55031 | 29988 ft | 452 kts | 251° |
| 2026-05-07 11:49 | -23.61268 | -44.58353 | 29681 ft | 451 kts | 252° |
| 2026-05-07 11:50 | -23.62024 | -44.61677 | 29406 ft | 452 kts | 252° |
| 2026-05-07 11:50 | -23.62782 | -44.65005 | 29134 ft | 453 kts | 252° |
| 2026-05-07 11:50 | -23.63540 | -44.68344 | 28871 ft | 454 kts | 252° |
| 2026-05-07 11:50 | -23.64299 | -44.71695 | 28611 ft | 456 kts | 252° |
| 2026-05-07 11:51 | -23.65056 | -44.75055 | 28349 ft | 457 kts | 252° |
| 2026-05-07 11:51 | -23.65813 | -44.78426 | 28092 ft | 458 kts | 252° |
| 2026-05-07 11:51 | -23.66572 | -44.81804 | 27832 ft | 459 kts | 253° |
| 2026-05-07 11:51 | -23.67330 | -44.85193 | 27592 ft | 460 kts | 253° |
| 2026-05-07 11:52 | -23.68092 | -44.88591 | 27333 ft | 462 kts | 253° |
| 2026-05-07 11:52 | -23.68856 | -44.91995 | 27035 ft | 463 kts | 253° |
| 2026-05-07 11:52 | -23.69625 | -44.95410 | 26550 ft | 464 kts | 253° |
| 2026-05-07 11:52 | -23.70397 | -44.98837 | 26064 ft | 466 kts | 253° |
| 2026-05-07 11:53 | -23.71171 | -45.02279 | 25560 ft | 468 kts | 254° |
| 2026-05-07 11:53 | -23.71936 | -45.05690 | 25057 ft | 470 kts | 254° |
| 2026-05-07 11:53 | -23.72721 | -45.09197 | 24505 ft | 469 kts | 254° |
| 2026-05-07 11:53 | -23.73488 | -45.12644 | 23984 ft | 467 kts | 255° |
| 2026-05-07 11:54 | -23.74244 | -45.16061 | 23417 ft | 458 kts | 255° |
| 2026-05-07 11:54 | -23.74977 | -45.19382 | 22869 ft | 455 kts | 255° |
| 2026-05-07 11:54 | -23.75717 | -45.22722 | 22267 ft | 451 kts | 255° |
| 2026-05-07 11:54 | -23.76454 | -45.26039 | 21686 ft | 449 kts | 255° |
| 2026-05-07 11:55 | -23.77190 | -45.29352 | 21118 ft | 447 kts | 255° |
| 2026-05-07 11:55 | -23.77919 | -45.32646 | 20533 ft | 446 kts | 256° |
| 2026-05-07 11:55 | -23.78643 | -45.35931 | 19957 ft | 444 kts | 256° |
| 2026-05-07 11:55 | -23.79365 | -45.39203 | 19377 ft | 443 kts | 256° |
| 2026-05-07 11:56 | -23.79736 | -45.41434 | 18987 ft | 443 kts | 263° |
| 2026-05-07 11:56 | -23.79929 | -45.44790 | 18428 ft | 442 kts | 266° |
| 2026-05-07 11:56 | -23.80099 | -45.48133 | 17810 ft | 440 kts | 266° |
| 2026-05-07 11:56 | -23.80270 | -45.51463 | 17516 ft | 439 kts | 266° |
| 2026-05-07 11:57 | -23.80441 | -45.54789 | 17260 ft | 438 kts | 266° |
| 2026-05-07 11:57 | -23.80611 | -45.58106 | 16971 ft | 437 kts | 266° |
| 2026-05-07 11:57 | -23.80779 | -45.61362 | 16568 ft | 435 kts | 266° |
| 2026-05-07 11:57 | -23.80949 | -45.64649 | 16161 ft | 432 kts | 266° |
| 2026-05-07 11:58 | -23.81115 | -45.67920 | 15769 ft | 430 kts | 266° |
| 2026-05-07 11:58 | -23.81280 | -45.71177 | 15360 ft | 429 kts | 266° |
| 2026-05-07 11:58 | -23.81444 | -45.74417 | 14973 ft | 426 kts | 266° |
| 2026-05-07 11:58 | -23.81607 | -45.77641 | 14591 ft | 424 kts | 266° |
| 2026-05-07 11:59 | -23.81769 | -45.80848 | 14204 ft | 422 kts | 266° |
| 2026-05-07 11:59 | -23.81927 | -45.84037 | 13805 ft | 420 kts | 267° |
| 2026-05-07 11:59 | -23.82082 | -45.87212 | 13394 ft | 417 kts | 267° |
| 2026-05-07 11:59 | -23.82235 | -45.90369 | 13015 ft | 415 kts | 267° |
| 2026-05-07 12:00 | -23.82390 | -45.93502 | 12621 ft | 412 kts | 267° |
| 2026-05-07 12:00 | -23.82543 | -45.96616 | 12247 ft | 409 kts | 267° |
| 2026-05-07 12:00 | -23.82696 | -45.99710 | 11875 ft | 406 kts | 268° |
| 2026-05-07 12:00 | -23.82847 | -46.02783 | 11517 ft | 404 kts | 268° |
| 2026-05-07 12:01 | -23.82995 | -46.05838 | 11126 ft | 401 kts | 268° |
| 2026-05-07 12:01 | -23.83141 | -46.08870 | 10768 ft | 400 kts | 268° |
| 2026-05-07 12:01 | -23.83285 | -46.11900 | 10400 ft | 399 kts | 269° |
| 2026-05-07 12:01 | -23.83428 | -46.14920 | 10035 ft | 397 kts | 268° |
| 2026-05-07 12:02 | -23.83570 | -46.17922 | 9639 ft | 394 kts | 269° |
| 2026-05-07 12:02 | -23.83710 | -46.20900 | 9275 ft | 392 kts | 268° |
| 2026-05-07 12:02 | -23.83879 | -46.23864 | 8909 ft | 390 kts | 267° |
| 2026-05-07 12:02 | -23.84079 | -46.26765 | 8646 ft | 373 kts | 267° |
| 2026-05-07 12:03 | -23.84287 | -46.29502 | 8521 ft | 351 kts | 267° |
| 2026-05-07 12:03 | -23.84487 | -46.32088 | 8402 ft | 333 kts | 267° |
| 2026-05-07 12:03 | -23.84674 | -46.34548 | 8286 ft | 317 kts | 267° |
| 2026-05-07 12:03 | -23.84846 | -46.36897 | 8172 ft | 305 kts | 267° |
| 2026-05-07 12:04 | -23.85007 | -46.39184 | 7925 ft | 300 kts | 268° |
| 2026-05-07 12:04 | -23.85162 | -46.41445 | 7609 ft | 298 kts | 268° |
| 2026-05-07 12:04 | -23.85169 | -46.43686 | 7216 ft | 291 kts | 281° |
| 2026-05-07 12:04 | -23.84640 | -46.45785 | 6680 ft | 285 kts | 297° |
| 2026-05-07 12:05 | -23.83618 | -46.47607 | 6093 ft | 279 kts | 313° |
| 2026-05-07 12:05 | -23.82378 | -46.49171 | 5830 ft | 265 kts | 313° |
| 2026-05-07 12:05 | -23.81228 | -46.50649 | 5701 ft | 247 kts | 313° |
| 2026-05-07 12:05 | -23.80160 | -46.52031 | 5603 ft | 229 kts | 313° |
| 2026-05-07 12:06 | -23.79173 | -46.53310 | 5506 ft | 212 kts | 313° |
| 2026-05-07 12:06 | -23.78230 | -46.54528 | 5425 ft | 209 kts | 313° |
| 2026-05-07 12:06 | -23.77175 | -46.55596 | 5316 ft | 207 kts | 328° |
| 2026-05-07 12:06 | -23.75973 | -46.56440 | 5138 ft | 204 kts | 330° |
| 2026-05-07 12:07 | -23.74777 | -46.57260 | 4971 ft | 200 kts | 331° |
| 2026-05-07 12:07 | -23.73636 | -46.58051 | 4846 ft | 188 kts | 331° |
| 2026-05-07 12:07 | -23.72546 | -46.58807 | 4708 ft | 183 kts | 332° |
| 2026-05-07 12:07 | -23.71476 | -46.59546 | 4513 ft | 181 kts | 332° |
| 2026-05-07 12:08 | -23.70414 | -46.60281 | 4286 ft | 181 kts | 331° |
| 2026-05-07 12:08 | -23.69394 | -46.60988 | 4082 ft | 169 kts | 332° |
| 2026-05-07 12:08 | -23.68453 | -46.61642 | 3867 ft | 149 kts | 332° |
| 2026-05-07 12:08 | -23.67631 | -46.62212 | 3679 ft | 133 kts | 333° |
| 2026-05-07 12:09 | -23.66860 | -46.62736 | 3501 ft | 129 kts | 334° |
| 2026-05-07 12:09 | -23.66116 | -46.63256 | 3362 ft | 125 kts | 335° |
| 2026-05-07 12:09 | -23.65379 | -46.63763 | 3150 ft | 126 kts | 330° |
| 2026-05-07 12:09 | -23.64631 | -46.64287 | 2945 ft | 128 kts | 331° |
| 2026-05-07 12:10 | -23.63862 | -46.64816 | 2764 ft | 133 kts | 330° |
| 2026-05-07 12:10 | -23.63108 | -46.65339 | 2612 ft | 115 kts | 329° |
| 2026-05-07 12:10 | -23.62665 | -46.65650 | 2606 ft | 46 kts | 327° |
| 2026-05-07 12:10 | -23.62379 | -46.65846 | 2602 ft | 48 kts | 327° |
| 2026-05-07 12:11 | -23.62209 | -46.65966 | 2599 ft | 15 kts | 321° |
| 2026-05-07 12:11 | -23.62250 | -46.66043 | 2600 ft | 16 kts | 180° |
| 2026-05-07 12:11 | -23.62361 | -46.66013 | 2600 ft | 18 kts | 150° |
| 2026-05-07 12:11 | -23.62471 | -46.65939 | 2601 ft | 19 kts | 148° |
| 2026-05-07 12:12 | -23.62569 | -46.65870 | 2601 ft | 13 kts | 147° |
| 2026-05-07 12:12 | -23.62624 | -46.65833 | 2601 ft | 7 kts | 150° |
| 2026-05-07 12:12 | -23.62654 | -46.65857 | 2601 ft | 5 kts | 239° |
| 2026-05-07 12:12 | -23.62660 | -46.65868 | 2601 ft | 0 kts | 238° |